createdAt,value
2022-10-09T00:01:19.804Z,50.67
2022-10-09T00:03:49.731Z,37.85
2022-10-09T00:06:21.390Z,28.25
2022-10-09T00:08:49.636Z,23.77
2022-10-09T00:11:19.955Z,26.05
2022-10-09T00:13:48.343Z,36.55
2022-10-09T00:16:18.407Z,27.60
2022-10-09T00:18:46.979Z,20.80
2022-10-09T00:21:21.566Z,27.20
2022-10-09T00:23:50.275Z,24.95
2022-10-09T00:26:19.114Z,23.65
2022-10-09T00:28:47.816Z,24.52
2022-10-09T00:31:16.728Z,23.85
2022-10-09T00:33:44.808Z,32.03
2022-10-09T00:36:15.541Z,25.80
2022-10-09T00:38:45.097Z,53.92
2022-10-09T00:41:16.760Z,31.95
2022-10-09T00:43:49.007Z,33.80
2022-10-09T00:46:29.837Z,33.38
2022-10-09T00:49:06.754Z,26.00
2022-10-09T00:51:36.092Z,21.95
2022-10-09T00:54:10.038Z,25.70
2022-10-09T00:56:38.105Z,21.38
2022-10-09T00:59:07.166Z,17.83
2022-10-09T01:01:35.534Z,19.73
2022-10-09T01:04:03.718Z,17.63
2022-10-09T01:06:45.480Z,39.08
2022-10-09T01:09:17.843Z,34.17
2022-10-09T01:11:55.634Z,32.95
2022-10-09T01:14:28.871Z,26.95
2022-10-09T01:17:03.800Z,48.60
2022-10-09T01:19:49.857Z,33.17
2022-10-09T01:22:33.982Z,69.93
2022-10-09T01:25:08.326Z,24.52
2022-10-09T01:27:39.101Z,29.13
2022-10-09T01:30:09.945Z,24.65
2022-10-09T01:32:41.723Z,19.73
2022-10-09T01:35:12.608Z,17.63
2022-10-09T01:37:43.546Z,21.63
2022-10-09T01:40:13.688Z,29.10
2022-10-09T01:42:43.632Z,45.63
2022-10-09T01:45:12.393Z,29.73
2022-10-09T01:47:40.671Z,28.25
2022-10-09T01:50:17.222Z,22.10
2022-10-09T01:52:49.907Z,22.00
2022-10-09T01:55:26.923Z,17.10
2022-10-09T01:58:01.433Z,14.25
2022-10-09T02:00:31.809Z,18.63
2022-10-09T02:03:00.193Z,24.10
2022-10-09T02:05:30.523Z,31.52
2022-10-09T02:08:00.089Z,21.02
2022-10-09T02:10:28.615Z,17.85
2022-10-09T02:13:00.193Z,21.35
2022-10-09T02:15:32.791Z,21.58
2022-10-09T02:18:06.492Z,19.95
2022-10-09T02:20:37.362Z,19.27
2022-10-09T02:23:08.716Z,22.30
2022-10-09T02:25:37.170Z,30.83
2022-10-09T02:28:07.017Z,22.02
2022-10-09T02:30:42.914Z,21.63
2022-10-09T02:33:11.157Z,23.17
2022-10-09T02:35:39.570Z,31.15
2022-10-09T02:38:07.445Z,21.35
2022-10-09T02:40:35.316Z,22.40
2022-10-09T02:43:03.168Z,34.05
2022-10-09T02:45:32.490Z,42.25
2022-10-09T02:48:00.547Z,47.25
2022-10-09T02:50:28.419Z,53.55
2022-10-09T02:52:56.290Z,46.17
2022-10-09T02:55:24.346Z,62.97
2022-10-09T02:57:52.325Z,62.80
2022-10-09T03:00:20.393Z,40.15
2022-10-09T03:02:49.907Z,33.50
2022-10-09T03:05:18.038Z,18.73
2022-10-09T03:07:51.414Z,28.75
2022-10-09T03:10:20.030Z,24.15
2022-10-09T03:12:48.671Z,25.15
2022-10-09T03:15:17.222Z,24.92
2022-10-09T03:17:45.046Z,20.58
2022-10-09T03:20:14.293Z,8.85
2022-10-09T03:22:42.322Z,31.42
2022-10-09T03:25:10.617Z,17.52
2022-10-09T03:27:38.825Z,25.15
2022-10-09T03:30:08.053Z,18.90
2022-10-09T03:32:36.000Z,22.20
2022-10-09T03:35:03.880Z,21.20
2022-10-09T03:37:33.207Z,21.33
2022-10-09T03:40:01.083Z,24.05
2022-10-09T03:42:28.952Z,25.42
2022-10-09T03:44:57.649Z,25.88
2022-10-09T03:47:25.676Z,26.20
2022-10-09T03:49:53.534Z,17.95
2022-10-09T03:52:21.410Z,25.00
2022-10-09T03:54:50.724Z,20.42
2022-10-09T03:57:18.654Z,15.65
2022-10-09T03:59:46.501Z,20.33
2022-10-09T04:02:14.417Z,23.77
2022-10-09T04:04:42.297Z,19.83
2022-10-09T04:07:10.164Z,21.20
2022-10-09T04:09:37.971Z,29.67
2022-10-09T04:12:07.456Z,15.20
2022-10-09T04:14:35.340Z,21.42
2022-10-09T04:17:03.240Z,19.58
2022-10-09T04:19:31.155Z,22.40
2022-10-09T04:21:59.116Z,20.77
2022-10-09T04:24:27.145Z,28.67
2022-10-09T04:26:55.030Z,53.00
2022-10-09T04:29:24.374Z,24.15
2022-10-09T04:31:52.906Z,31.75
2022-10-09T04:34:20.937Z,130.63
2022-10-09T04:36:48.845Z,158.90
2022-10-09T04:39:16.753Z,159.98
2022-10-09T04:41:44.608Z,62.80
2022-10-09T04:44:12.454Z,32.17
2022-10-09T04:46:41.722Z,100.78
2022-10-09T04:49:12.877Z,99.45
2022-10-09T04:51:40.870Z,143.73
2022-10-09T04:54:08.982Z,109.60
2022-10-09T04:56:36.904Z,68.35
2022-10-09T04:59:04.892Z,62.72
2022-10-09T05:01:37.828Z,46.78
2022-10-09T05:04:07.649Z,65.57
2022-10-09T05:06:35.538Z,68.63
2022-10-09T05:09:03.361Z,29.27
2022-10-09T05:11:31.275Z,27.73
2022-10-09T05:13:59.523Z,33.67
2022-10-09T05:16:31.703Z,36.38
2022-10-09T05:19:01.140Z,54.92
2022-10-09T05:21:31.802Z,42.42
2022-10-09T05:24:01.827Z,36.75
2022-10-09T05:26:29.998Z,26.95
2022-10-09T05:28:58.393Z,25.60
2022-10-09T05:31:28.541Z,25.90
2022-10-09T05:33:57.235Z,28.23
2022-10-09T05:36:25.231Z,27.70
2022-10-09T05:38:54.693Z,37.53
2022-10-09T05:41:22.563Z,39.38
2022-10-09T05:43:51.181Z,32.03
2022-10-09T05:46:20.863Z,28.92
2022-10-09T05:48:53.418Z,22.77
2022-10-09T05:51:23.460Z,23.50
2022-10-09T05:53:51.565Z,27.88
2022-10-09T05:56:23.139Z,37.60
2022-10-09T05:58:52.337Z,38.15
2022-10-09T06:01:20.757Z,37.63
2022-10-09T06:03:52.804Z,36.55
2022-10-09T06:06:22.984Z,40.13
2022-10-09T06:08:51.083Z,33.92
2022-10-09T06:11:22.910Z,28.60
2022-10-09T06:13:50.904Z,28.30
2022-10-09T06:16:19.297Z,26.83
2022-10-09T06:18:49.686Z,33.75
2022-10-09T06:21:18.050Z,45.00
2022-10-09T06:23:46.045Z,40.83
2022-10-09T06:26:14.739Z,30.52
2022-10-09T06:28:44.236Z,29.83
2022-10-09T06:31:13.862Z,31.20
2022-10-09T06:33:43.051Z,22.88
2022-10-09T06:36:12.686Z,34.05
2022-10-09T06:38:41.281Z,23.65
2022-10-09T06:41:11.461Z,25.98
2022-10-09T06:43:39.342Z,20.15
2022-10-09T06:46:11.633Z,25.90
2022-10-09T06:48:41.165Z,30.90
2022-10-09T06:51:11.146Z,25.83
2022-10-09T06:53:40.994Z,26.60
2022-10-09T06:56:10.501Z,40.08
2022-10-09T06:58:39.250Z,40.67
2022-10-09T07:01:10.275Z,41.78
2022-10-09T07:03:40.108Z,31.98
2022-10-09T07:06:10.821Z,27.60
2022-10-09T07:08:39.973Z,27.95
2022-10-09T07:11:13.048Z,25.60
2022-10-09T07:13:41.523Z,29.83
2022-10-09T07:16:11.664Z,29.45
2022-10-09T07:18:40.484Z,26.92
2022-10-09T07:21:09.781Z,18.13
2022-10-09T07:23:38.176Z,22.55
2022-10-09T07:26:12.186Z,29.23
2022-10-09T07:28:41.368Z,20.00
2022-10-09T07:31:11.785Z,19.83
2022-10-09T07:33:40.062Z,19.52
2022-10-09T07:36:09.231Z,21.00
2022-10-09T07:38:37.670Z,33.60
2022-10-09T07:41:07.832Z,21.17
2022-10-09T07:43:37.061Z,31.33
2022-10-09T07:46:06.775Z,14.95
2022-10-09T07:48:36.928Z,20.85
2022-10-09T07:51:10.312Z,27.08
2022-10-09T07:53:38.969Z,22.63
2022-10-09T07:56:07.451Z,19.00
2022-10-09T07:58:35.440Z,12.10
2022-10-09T08:01:07.756Z,17.30
2022-10-09T08:03:38.149Z,21.40
2022-10-09T08:06:06.744Z,17.90
2022-10-09T08:08:34.691Z,14.95
2022-10-09T08:11:09.775Z,18.10
2022-10-09T08:13:38.576Z,18.20
2022-10-09T08:16:07.310Z,19.25
2022-10-09T08:18:37.470Z,13.55
2022-10-09T08:21:09.041Z,16.25
2022-10-09T08:23:37.309Z,13.30
2022-10-09T08:26:05.756Z,11.70
2022-10-09T08:28:34.005Z,20.63
2022-10-09T08:31:01.970Z,21.92
2022-10-09T08:33:29.833Z,19.15
2022-10-09T08:36:07.886Z,12.50
2022-10-09T08:38:51.426Z,13.90
2022-10-09T08:41:27.256Z,19.38
2022-10-09T08:44:02.294Z,22.80
2022-10-09T08:46:36.622Z,19.73
2022-10-09T08:49:12.624Z,23.77
2022-10-09T08:51:41.933Z,31.30
2022-10-09T08:54:16.759Z,23.40
2022-10-09T08:56:45.133Z,16.65
2022-10-09T08:59:13.603Z,18.77
2022-10-09T09:01:49.486Z,12.23
2022-10-09T09:04:39.542Z,22.45
2022-10-09T09:07:20.951Z,14.32
2022-10-09T09:09:55.407Z,22.38
2022-10-09T09:12:34.071Z,26.38
2022-10-09T09:15:19.331Z,20.45
2022-10-09T09:17:54.328Z,19.85
2022-10-09T09:20:26.946Z,17.55
2022-10-09T09:23:00.251Z,18.50
2022-10-09T09:25:32.578Z,28.90
2022-10-09T09:28:12.443Z,14.63
2022-10-09T09:30:48.713Z,14.38
2022-10-09T09:33:23.466Z,27.90
2022-10-09T09:36:01.215Z,20.00
2022-10-09T09:38:30.642Z,14.05
2022-10-09T09:40:58.673Z,20.77
2022-10-09T09:43:27.991Z,26.85
2022-10-09T09:45:57.557Z,18.88
2022-10-09T09:48:34.163Z,12.82
2022-10-09T09:51:27.633Z,17.25
2022-10-09T09:53:55.609Z,25.73
2022-10-09T09:56:53.172Z,15.90
2022-10-09T09:59:32.301Z,14.68
2022-10-09T10:02:05.528Z,14.27
2022-10-09T10:04:34.338Z,20.25
2022-10-09T10:07:02.607Z,13.68
2022-10-09T10:09:34.384Z,16.25
2022-10-09T10:12:04.501Z,23.95
2022-10-09T10:14:33.068Z,20.73
2022-10-09T10:17:02.399Z,21.48
2022-10-09T10:19:35.009Z,23.13
2022-10-09T10:22:04.883Z,20.83
2022-10-09T10:24:36.956Z,21.48
2022-10-09T10:27:12.013Z,26.98
2022-10-09T10:29:43.612Z,15.70
2022-10-09T10:32:17.235Z,15.93
2022-10-09T10:34:50.562Z,19.23
2022-10-09T10:37:44.348Z,19.13
2022-10-09T10:40:21.425Z,28.95
2022-10-09T10:43:03.347Z,19.50
2022-10-09T10:45:36.748Z,12.75
2022-10-09T10:48:06.637Z,23.25
2022-10-09T10:50:39.913Z,13.13
2022-10-09T10:53:18.642Z,25.70
2022-10-09T10:55:54.655Z,24.05
2022-10-09T10:58:27.839Z,20.27
2022-10-09T11:01:11.820Z,24.40
2022-10-09T11:03:54.375Z,11.32
2022-10-09T11:06:27.512Z,25.10
2022-10-09T11:09:05.451Z,24.05
2022-10-09T11:11:42.556Z,24.38
2022-10-09T11:14:23.118Z,18.83
2022-10-09T11:17:03.257Z,9.90
2022-10-09T11:19:53.399Z,12.82
2022-10-09T11:22:49.693Z,15.98
2022-10-09T11:25:26.438Z,14.50
2022-10-09T11:28:00.044Z,20.10
2022-10-09T11:30:31.855Z,20.17
2022-10-09T11:33:06.447Z,22.88
2022-10-09T11:35:41.817Z,19.08
2022-10-09T11:38:23.077Z,28.02
2022-10-09T11:40:51.671Z,29.83
2022-10-09T11:43:41.861Z,35.20
2022-10-09T11:46:18.315Z,33.80
2022-10-09T11:48:53.048Z,32.72
2022-10-09T11:51:30.025Z,12.65
2022-10-09T11:53:58.800Z,25.48
2022-10-09T11:56:28.486Z,24.75
2022-10-09T11:59:03.958Z,25.13
2022-10-09T12:01:35.941Z,23.60
2022-10-09T12:04:08.223Z,38.42
2022-10-09T12:06:48.311Z,22.88
2022-10-09T12:09:23.888Z,29.85
2022-10-09T12:11:59.447Z,22.45
2022-10-09T12:14:31.074Z,28.33
2022-10-09T12:17:00.478Z,34.60
2022-10-09T12:19:31.888Z,34.22
2022-10-09T12:22:04.763Z,42.05
2022-10-09T12:24:38.872Z,33.90
2022-10-09T12:27:07.819Z,39.95
2022-10-09T12:29:44.529Z,40.40
2022-10-09T12:32:18.344Z,49.05
2022-10-09T12:34:49.078Z,102.00
2022-10-09T12:37:19.894Z,93.35
2022-10-09T12:39:49.108Z,97.40
2022-10-09T12:42:21.336Z,53.97
2022-10-09T12:44:53.766Z,61.83
2022-10-09T12:47:26.704Z,91.88
2022-10-09T12:49:59.876Z,49.92
2022-10-09T12:52:28.410Z,124.78
2022-10-09T12:54:56.518Z,66.70
2022-10-09T12:57:27.851Z,53.72
2022-10-09T12:59:59.467Z,80.30
2022-10-09T13:02:27.624Z,34.03
2022-10-09T13:04:58.787Z,47.95
2022-10-09T13:07:29.028Z,29.70
2022-10-09T13:10:08.107Z,19.30
2022-10-09T13:12:36.614Z,22.85
2022-10-09T13:15:07.712Z,22.50
2022-10-09T13:17:38.236Z,23.45
2022-10-09T13:20:25.481Z,47.90
2022-10-09T13:22:58.337Z,20.60
2022-10-09T13:25:27.288Z,17.63
2022-10-09T13:27:55.490Z,31.30
2022-10-09T13:30:25.406Z,622.83
2022-10-09T13:32:53.362Z,612.90
2022-10-09T13:35:21.502Z,613.53
2022-10-09T13:37:49.619Z,609.70
2022-10-09T13:40:22.186Z,612.00
2022-10-09T13:42:54.086Z,608.60
2022-10-09T13:45:22.544Z,609.38
2022-10-09T13:47:52.435Z,525.92
2022-10-09T13:50:20.874Z,527.17
2022-10-09T13:52:48.901Z,543.17
2022-10-09T13:55:17.305Z,406.05
2022-10-09T13:57:45.232Z,524.70
2022-10-09T14:00:14.381Z,571.40
2022-10-09T14:02:42.484Z,582.35
2022-10-09T14:05:12.027Z,593.15
2022-10-09T14:07:39.968Z,607.22
2022-10-09T14:10:08.940Z,599.45
2022-10-09T14:12:36.970Z,603.38
2022-10-09T14:15:05.373Z,593.72
2022-10-09T14:17:33.593Z,590.13
2022-10-09T14:20:01.681Z,608.63
2022-10-09T14:22:30.921Z,620.67
2022-10-09T14:24:58.889Z,615.67
2022-10-09T14:27:26.969Z,621.88
2022-10-09T14:29:56.728Z,612.92
2022-10-09T14:32:25.481Z,595.13
2022-10-09T14:34:53.853Z,617.03
2022-10-09T14:37:39.800Z,620.50
2022-10-09T14:40:12.606Z,604.90
2022-10-09T14:42:41.515Z,610.60
2022-10-09T14:45:11.298Z,607.65
2022-10-09T14:47:39.174Z,576.67
2022-10-09T14:50:08.580Z,573.72
2022-10-09T14:52:36.839Z,548.47
2022-10-09T14:55:04.984Z,556.90
2022-10-09T14:57:35.786Z,548.60
2022-10-09T15:00:05.483Z,572.20
2022-10-09T15:02:33.500Z,573.33
2022-10-09T15:05:01.537Z,589.60
2022-10-09T15:07:29.808Z,533.80
2022-10-09T15:09:58.422Z,589.40
2022-10-09T15:12:26.454Z,620.47
2022-10-09T15:14:55.970Z,595.20
2022-10-09T15:17:24.183Z,586.25
2022-10-09T15:19:54.084Z,601.80
2022-10-09T15:22:22.072Z,609.97
2022-10-09T15:24:50.414Z,611.20
2022-10-09T15:27:18.563Z,604.00
2022-10-09T15:29:46.746Z,611.33
2022-10-09T15:32:16.164Z,577.60
2022-10-09T15:34:44.331Z,592.50
2022-10-09T15:37:12.368Z,589.63
2022-10-09T15:39:40.463Z,577.25
2022-10-09T15:43:03.788Z,550.40
2022-10-09T15:46:27.140Z,559.22
2022-10-09T15:49:53.400Z,565.75
2022-10-09T15:53:16.710Z,552.72
2022-10-09T15:56:40.496Z,570.80
2022-10-09T16:00:03.708Z,585.15
2022-10-09T16:03:26.998Z,546.47
2022-10-09T16:06:50.093Z,577.35
2022-10-09T16:10:12.703Z,575.10
2022-10-09T16:13:38.348Z,583.55
2022-10-09T16:17:01.277Z,581.90
2022-10-09T16:20:24.179Z,569.95
2022-10-09T16:23:46.974Z,612.05
2022-10-09T16:27:09.884Z,592.30
2022-10-09T16:30:32.642Z,595.15
2022-10-09T16:33:55.637Z,601.05
2022-10-09T16:37:18.532Z,611.47
2022-10-09T16:41:01.840Z,616.42
2022-10-09T16:44:24.715Z,597.75
2022-10-09T16:47:47.684Z,619.28
2022-10-09T16:51:10.707Z,617.42
2022-10-09T16:54:33.623Z,604.42
2022-10-09T16:57:56.546Z,630.88
2022-10-09T17:01:19.416Z,606.42
2022-10-09T17:04:42.415Z,598.45
2022-10-09T17:08:05.248Z,657.80
2022-10-09T17:11:27.981Z,588.35
2022-10-09T17:14:50.550Z,606.60
2022-10-09T17:18:13.295Z,613.85
2022-10-09T17:21:36.215Z,614.03
2022-10-09T17:24:59.119Z,620.15
2022-10-09T17:28:21.889Z,596.42
2022-10-09T17:31:45.105Z,616.88
2022-10-09T17:35:08.081Z,622.65
2022-10-09T17:38:30.895Z,610.75
2022-10-09T17:41:37.464Z,582.67
2022-10-09T17:44:05.647Z,625.90
2022-10-09T17:46:33.690Z,630.97
2022-10-09T17:49:01.700Z,640.30
2022-10-09T17:51:32.525Z,588.20
2022-10-09T17:54:02.771Z,603.05
2022-10-09T17:56:32.976Z,584.65
2022-10-09T17:59:03.646Z,598.30
2022-10-09T18:01:32.202Z,597.25
2022-10-09T18:04:00.393Z,588.50
2022-10-09T18:06:31.337Z,586.63
2022-10-09T18:08:59.352Z,571.63
2022-10-09T18:11:28.754Z,583.40
2022-10-09T18:13:56.999Z,584.67
2022-10-09T18:16:38.437Z,590.22
2022-10-09T18:19:11.511Z,570.28
2022-10-09T18:21:41.976Z,551.55
2022-10-09T18:24:10.114Z,582.78
2022-10-09T18:26:38.092Z,581.50
2022-10-09T18:29:06.739Z,571.80
2022-10-09T18:31:39.472Z,568.30
2022-10-09T18:34:07.947Z,567.10
2022-10-09T18:36:36.276Z,565.50
2022-10-09T18:39:06.929Z,543.10
2022-10-09T18:41:35.484Z,550.05
2022-10-09T18:44:04.726Z,543.92
2022-10-09T18:46:38.266Z,566.67
2022-10-09T18:49:09.551Z,603.33
2022-10-09T18:51:39.922Z,585.88
2022-10-09T18:54:18.134Z,578.97
2022-10-09T18:56:46.799Z,578.55
2022-10-09T18:59:19.355Z,572.10
2022-10-09T19:01:51.177Z,568.83
2022-10-09T19:04:28.251Z,562.28
2022-10-09T19:06:57.843Z,554.25
2022-10-09T19:09:35.148Z,531.92
2022-10-09T19:12:04.192Z,563.35
2022-10-09T19:14:32.626Z,563.53
2022-10-09T19:17:01.958Z,549.70
2022-10-09T19:19:34.267Z,572.05
2022-10-09T19:22:02.266Z,582.97
2022-10-09T19:24:34.246Z,570.40
2022-10-09T19:27:07.181Z,557.60
2022-10-09T19:29:35.218Z,562.33
2022-10-09T19:32:04.817Z,540.45
2022-10-09T19:34:32.900Z,564.92
2022-10-09T19:37:01.038Z,568.20
2022-10-09T19:39:29.094Z,557.15
2022-10-09T19:41:57.406Z,551.92
2022-10-09T19:44:25.605Z,559.42
2022-10-09T19:46:53.754Z,522.25
2022-10-09T19:49:23.023Z,526.05
2022-10-09T19:51:53.127Z,510.80
2022-10-09T19:54:20.994Z,526.22
2022-10-09T19:56:49.130Z,547.10
2022-10-09T19:59:17.010Z,526.85
2022-10-09T20:01:44.993Z,539.17
2022-10-09T20:04:12.877Z,553.35
2022-10-09T20:06:43.671Z,542.63
2022-10-09T20:09:13.179Z,543.55
2022-10-09T20:11:41.033Z,539.92
2022-10-09T20:14:09.338Z,570.83
2022-10-09T20:16:37.445Z,522.55
2022-10-09T20:19:06.153Z,501.25
2022-10-09T20:21:34.804Z,492.65
2022-10-09T20:24:04.065Z,409.38
2022-10-09T20:26:33.247Z,492.98
2022-10-09T20:29:01.839Z,522.97
2022-10-09T20:31:30.318Z,499.13
2022-10-09T20:33:59.569Z,503.27
2022-10-09T20:36:31.291Z,509.88
2022-10-09T20:39:00.956Z,507.30
2022-10-09T20:41:31.764Z,439.73
2022-10-09T20:44:01.403Z,490.65
2022-10-09T20:46:31.653Z,481.15
2022-10-09T20:49:02.428Z,485.42
2022-10-09T20:51:30.372Z,492.77
2022-10-09T20:54:02.849Z,506.83
2022-10-09T20:56:34.049Z,491.35
2022-10-09T20:59:02.875Z,499.35
2022-10-09T21:01:31.115Z,503.88
2022-10-09T21:03:59.660Z,508.67
2022-10-09T21:06:28.164Z,498.63
2022-10-09T21:08:56.343Z,462.33
2022-10-09T21:11:25.201Z,456.20
2022-10-09T21:13:54.858Z,382.23
2022-10-09T21:16:24.539Z,453.33
2022-10-09T21:18:54.850Z,488.48
2022-10-09T21:21:23.163Z,515.20
2022-10-09T21:23:52.024Z,515.50
2022-10-09T21:26:22.338Z,544.92
2022-10-09T21:28:53.336Z,543.60
2022-10-09T21:31:28.535Z,547.60
2022-10-09T21:33:57.311Z,546.45
2022-10-09T21:36:33.773Z,534.25
2022-10-09T21:39:01.794Z,515.78
2022-10-09T21:41:29.746Z,539.03
2022-10-09T21:43:57.682Z,529.63
2022-10-09T21:46:27.279Z,522.97
2022-10-09T21:48:55.300Z,532.30
2022-10-09T21:51:24.188Z,488.63
2022-10-09T21:53:54.003Z,456.80
2022-10-09T21:56:22.194Z,480.60
2022-10-09T21:58:50.329Z,493.75
2022-10-09T22:01:18.595Z,512.83
2022-10-09T22:03:47.954Z,522.22
2022-10-09T22:06:19.130Z,483.80
2022-10-09T22:08:48.059Z,550.78
2022-10-09T22:11:16.873Z,523.38
2022-10-09T22:13:45.291Z,541.30
2022-10-09T22:16:15.891Z,541.92
2022-10-09T22:18:44.618Z,509.05
2022-10-09T22:21:15.912Z,493.23
2022-10-09T22:23:44.141Z,494.70
2022-10-09T22:26:18.999Z,494.33
2022-10-09T22:28:47.805Z,448.10
2022-10-09T22:31:17.521Z,497.92
2022-10-09T22:33:45.499Z,471.98
2022-10-09T22:36:16.391Z,470.15
2022-10-09T22:38:45.513Z,429.73
2022-10-09T22:41:15.184Z,438.52
2022-10-09T22:43:45.492Z,450.88
2022-10-09T22:46:15.502Z,443.42
2022-10-09T22:48:44.267Z,438.55
2022-10-09T22:51:15.999Z,454.25
2022-10-09T22:53:44.929Z,447.83
2022-10-09T22:56:15.546Z,455.38
2022-10-09T22:58:44.135Z,460.83
2022-10-09T23:01:14.968Z,427.75
2022-10-09T23:03:42.908Z,445.83
2022-10-09T23:06:12.767Z,437.40
2022-10-09T23:08:44.873Z,424.63
2022-10-09T23:11:13.940Z,417.45
2022-10-09T23:13:41.839Z,440.75
2022-10-09T23:16:11.953Z,416.17
2022-10-09T23:18:40.702Z,417.98
2022-10-09T23:21:10.865Z,429.17
2022-10-09T23:23:38.916Z,399.10
2022-10-09T23:26:09.940Z,457.67
2022-10-09T23:28:38.339Z,454.05
2022-10-09T23:31:07.877Z,461.80
2022-10-09T23:33:36.390Z,479.10
2022-10-09T23:36:04.972Z,490.02
2022-10-09T23:38:33.043Z,465.58
2022-10-09T23:41:03.267Z,429.98
2022-10-09T23:43:33.796Z,428.83
2022-10-09T23:46:03.435Z,466.38
2022-10-09T23:48:32.161Z,415.48
2022-10-09T23:51:00.281Z,436.10
2022-10-09T23:53:28.888Z,441.52
2022-10-09T23:55:56.856Z,440.25
2022-10-09T23:58:24.746Z,467.48
